»·PEaware :: N6594J KAMA-KAMA

N6594J :: KAMA-KAMA

FLIGHT INFORMATION

Flight Status: Arrived
Operator: Privately registered:
United States
More flights under this callsign
Pilot: Hub City Aviation Academy (12996)
Aircraft: PIPER PA-28 CHEROKEE ARCHER
(P28A)
More flights by this aircraft type
Origin: KAMA Amarillo Intl
United States
Destination: KAMA Amarillo Intl
United States
More flights between these airports :: More routes between these airports
Route: +
File this flight plan on PilotEdge
Remarks:
Altitude:
(Current/Filed)
0ft
Speed:
(Current/Filed)
0kts
Departed: 19-Jul-17 02:26 PM
Arrived: 19-Jul-17 03:16 PM
Distance/Time
Traveled:
0nm/0:50
Distance/Time
To Go:
Arrived

Flight Plot

Page will automatically refresh every two minutes.

Flight plan parsing failed; only flown route is shown


Map Options




Map Legend


Flown Route
Filed Route
Departure Airport
Arrival Airport
Navaid (VOR, NDB)
Fix

Horizontal Profiles

Position Reports

Time Latitude Longitude Heading Altitude Ground
Speed
19-Jul-17 14:26 35.232103 -101.702132 136 3610ft 0kts
19-Jul-17 14:27 35.232101 -101.702129 135 3610ft 0kts
19-Jul-17 14:28 35.231082 -101.700796 132 3610ft 11kts
19-Jul-17 14:29 35.220003 -101.713594 221 3882ft 86kts
19-Jul-17 14:30 35.204321 -101.733006 223 4815ft 82kts
19-Jul-17 14:31 35.186761 -101.753950 227 5492ft 92kts
19-Jul-17 14:32 35.167826 -101.779216 228 5839ft 111kts
19-Jul-17 14:33 35.145052 -101.798359 148 5836ft 126kts
19-Jul-17 14:34 35.116929 -101.773548 137 5721ft 129kts
19-Jul-17 14:35 35.089389 -101.747803 150 5711ft 125kts
19-Jul-17 14:36 35.061981 -101.722841 140 5748ft 122kts
19-Jul-17 14:37 35.069806 -101.690673 47 5784ft 121kts
19-Jul-17 14:38 35.076985 -101.650528 71 5294ft 121kts
19-Jul-17 14:39 35.080094 -101.611938 77 4980ft 110kts
19-Jul-17 14:40 35.088556 -101.579630 63 5126ft 99kts
19-Jul-17 14:41 35.103160 -101.550101 47 5094ft 106kts
19-Jul-17 14:42 35.124544 -101.524905 40 5041ft 104kts
19-Jul-17 14:43 35.148768 -101.507403 29 5118ft 101kts
19-Jul-17 14:44 35.173720 -101.491196 26 5157ft 101kts
19-Jul-17 14:45 35.200635 -101.480754 10 5185ft 101kts
19-Jul-17 14:46 35.228751 -101.477003 1 5233ft 101kts
19-Jul-17 14:47 35.256920 -101.480544 348 5251ft 101kts
19-Jul-17 14:48 35.284915 -101.487122 346 5282ft 101kts
19-Jul-17 14:49 35.306102 -101.503419 245 5111ft 115kts
19-Jul-17 14:50 35.293489 -101.536262 239 5096ft 99kts
19-Jul-17 14:51 35.280235 -101.566532 243 5094ft 100kts
19-Jul-17 14:52 35.269914 -101.597670 253 5121ft 99kts
19-Jul-17 14:53 35.260232 -101.630217 242 4400ft 103kts
19-Jul-17 14:54 35.249890 -101.655802 246 3737ft 72kts
19-Jul-17 14:55 35.241773 -101.679612 244 3792ft 80kts
19-Jul-17 14:56 35.229153 -101.703222 222 4117ft 86kts
19-Jul-17 14:57 35.205716 -101.707186 177 4879ft 96kts
19-Jul-17 14:58 35.175544 -101.703982 174 4969ft 112kts
19-Jul-17 14:59 35.146649 -101.702178 183 5526ft 102kts
19-Jul-17 15:00 35.116966 -101.704583 180 5822ft 117kts
19-Jul-17 15:01 35.083718 -101.706575 183 5880ft 122kts
19-Jul-17 15:02 35.049079 -101.708489 180 5809ft 123kts
19-Jul-17 15:03 35.019642 -101.690036 140 5806ft 123kts
19-Jul-17 15:04 34.990499 -101.677967 217 5745ft 126kts
19-Jul-17 15:05 35.002559 -101.706743 338 5792ft 122kts
19-Jul-17 15:06 35.036402 -101.712378 352 5805ft 122kts
19-Jul-17 15:07 35.070212 -101.716461 350 5849ft 121kts
19-Jul-17 15:08 35.090800 -101.730562 233 5652ft 122kts
19-Jul-17 15:09 35.068298 -101.760975 225 4873ft 119kts
19-Jul-17 15:10 35.060807 -101.795488 300 4757ft 122kts
19-Jul-17 15:11 35.083421 -101.824590 311 4848ft 114kts
19-Jul-17 15:12 35.113035 -101.833270 13 4813ft 119kts
19-Jul-17 15:13 35.140305 -101.813265 47 4796ft 111kts
19-Jul-17 15:14 35.162534 -101.785375 44 4796ft 119kts
19-Jul-17 15:15 35.185571 -101.756223 46 4248ft 115kts
19-Jul-17 15:16 35.204079 -101.724776 55 4044ft 109kts
19-Jul-17 15:17 35.227125 -101.699354 55 3995ft 116kts
19-Jul-17 15:18 35.231511 -101.699725 211 3688ft 67kts
19-Jul-17 15:19 35.224518 -101.707685 187 3610ft 11kts
19-Jul-17 15:20 35.223718 -101.707454 139 3610ft 0kts
19-Jul-17 15:21 35.220184 -101.703106 140 3610ft 0kts

Navigation Log

Ident Type
Flight plan parsing failed, navigation log unavailable